createdAt,value
2019-04-06T00:00:10.078Z,42.00
2019-04-06T00:01:10.055Z,42.20
2019-04-06T00:02:10.055Z,42.40
2019-04-06T00:03:10.042Z,45.60
2019-04-06T00:04:10.015Z,44.80
2019-04-06T00:05:10.013Z,44.10
2019-04-06T00:06:10.045Z,43.70
2019-04-06T00:07:10.004Z,43.20
2019-04-06T00:08:09.979Z,43.50
2019-04-06T00:09:09.961Z,42.80
2019-04-06T00:10:09.953Z,42.50
2019-04-06T00:11:09.950Z,42.80
2019-04-06T00:12:09.969Z,42.40
2019-04-06T00:13:09.916Z,41.20
2019-04-06T00:14:09.919Z,41.30
2019-04-06T00:15:09.898Z,42.10
2019-04-06T00:16:09.882Z,42.10
2019-04-06T00:17:09.879Z,43.30
2019-04-06T00:18:09.869Z,42.20
2019-04-06T00:19:09.858Z,42.20
2019-04-06T00:20:09.841Z,42.90
2019-04-06T00:21:09.828Z,42.70
2019-04-06T00:22:09.825Z,42.20
2019-04-06T00:23:09.817Z,43.40
2019-04-06T00:24:09.803Z,42.80
2019-04-06T00:25:09.858Z,41.70
2019-04-06T00:26:09.769Z,42.20
2019-04-06T00:27:09.791Z,43.60
2019-04-06T00:28:09.774Z,42.50
2019-04-06T00:29:09.758Z,42.60
2019-04-06T00:30:09.723Z,41.10
2019-04-06T00:31:09.731Z,42.30
2019-04-06T00:32:09.739Z,41.30
2019-04-06T00:33:09.694Z,41.80
2019-04-06T00:34:09.679Z,40.80
2019-04-06T00:35:09.691Z,41.50
2019-04-06T00:36:09.654Z,42.20
2019-04-06T00:37:09.645Z,42.40
2019-04-06T00:38:09.653Z,42.60
2019-04-06T00:39:09.629Z,42.70
2019-04-06T00:40:09.622Z,42.30
2019-04-06T00:41:09.646Z,41.70
2019-04-06T00:42:09.596Z,41.90
2019-04-06T00:43:09.597Z,42.00
2019-04-06T00:44:09.596Z,42.80
2019-04-06T00:45:09.569Z,41.20
2019-04-06T00:46:09.563Z,41.20
2019-04-06T00:47:09.583Z,41.50
2019-04-06T00:48:09.555Z,41.30
2019-04-06T00:49:09.526Z,40.20
2019-04-06T00:50:09.522Z,40.30
2019-04-06T00:51:09.495Z,41.10
2019-04-06T00:52:09.493Z,40.90
2019-04-06T00:53:09.498Z,39.60
2019-04-06T00:54:09.467Z,39.60
2019-04-06T00:55:09.450Z,40.60
2019-04-06T00:56:09.445Z,38.80
2019-04-06T00:57:09.425Z,40.80
2019-04-06T00:58:09.429Z,39.50
2019-04-06T00:59:09.398Z,41.00
2019-04-06T01:00:09.398Z,40.80
2019-04-06T01:01:09.376Z,41.00
2019-04-06T01:02:09.381Z,41.90
2019-04-06T01:03:09.384Z,41.20
2019-04-06T01:04:09.364Z,40.10
2019-04-06T01:05:09.350Z,39.30
2019-04-06T01:06:09.333Z,40.50
2019-04-06T01:07:09.323Z,39.30
2019-04-06T01:08:09.331Z,39.10
2019-04-06T01:09:09.305Z,39.80
2019-04-06T01:10:09.286Z,40.10
2019-04-06T01:11:09.273Z,38.60
2019-04-06T01:12:09.263Z,37.30
2019-04-06T01:13:09.276Z,38.00
2019-04-06T01:14:09.246Z,37.30
2019-04-06T01:15:09.240Z,35.70
2019-04-06T01:16:09.223Z,36.20
2019-04-06T01:17:09.204Z,34.40
2019-04-06T01:18:09.231Z,33.90
2019-04-06T01:19:09.299Z,35.10
2019-04-06T01:20:09.184Z,31.80
2019-04-06T01:21:09.159Z,31.90
2019-04-06T01:22:09.156Z,31.60
2019-04-06T01:23:09.141Z,29.60
2019-04-06T01:24:09.145Z,30.30
2019-04-06T01:25:09.135Z,29.20
2019-04-06T01:26:09.127Z,28.40
2019-04-06T01:27:09.099Z,28.10
2019-04-06T01:28:09.099Z,28.00
2019-04-06T01:29:09.116Z,27.70
2019-04-06T01:30:09.059Z,27.40
2019-04-06T01:31:09.059Z,26.80
2019-04-06T01:32:09.036Z,26.60
2019-04-06T01:33:09.067Z,26.60
2019-04-06T01:34:09.032Z,25.60
2019-04-06T01:35:09.027Z,25.50
2019-04-06T01:36:08.996Z,25.30
2019-04-06T01:37:09.000Z,25.20
2019-04-06T01:38:09.002Z,24.70
2019-04-06T01:39:08.983Z,25.20
2019-04-06T01:40:08.948Z,24.30
2019-04-06T01:41:08.953Z,23.80
2019-04-06T01:42:08.924Z,24.20
2019-04-06T01:43:08.984Z,24.10
2019-04-06T01:44:08.933Z,23.20
2019-04-06T01:45:08.893Z,23.40
2019-04-06T01:46:08.887Z,24.10
2019-04-06T01:47:08.864Z,23.20
2019-04-06T01:48:08.866Z,22.90
2019-04-06T01:49:08.885Z,23.00
2019-04-06T01:50:08.838Z,24.00
2019-04-06T01:51:08.871Z,23.40
2019-04-06T01:52:08.907Z,22.50
2019-04-06T01:53:08.806Z,23.50
2019-04-06T01:54:08.822Z,22.90
2019-04-06T01:55:08.883Z,22.40
2019-04-06T01:56:17.893Z,22.10
2019-04-06T01:57:09.824Z,22.30
2019-04-06T01:58:08.837Z,22.50
2019-04-06T01:59:08.756Z,21.60
2019-04-06T02:00:08.737Z,21.30
2019-04-06T02:01:08.721Z,21.50
2019-04-06T02:02:08.699Z,21.20
2019-04-06T02:03:08.701Z,22.60
2019-04-06T02:04:08.700Z,22.90
2019-04-06T02:05:08.675Z,23.10
2019-04-06T02:06:08.654Z,22.40
2019-04-06T02:07:08.763Z,21.60
2019-04-06T02:08:08.636Z,21.70
2019-04-06T02:09:08.644Z,21.80
2019-04-06T02:10:08.622Z,22.60
2019-04-06T02:11:08.604Z,21.90
2019-04-06T02:12:08.592Z,21.60
2019-04-06T02:13:08.639Z,22.50
2019-04-06T02:14:08.594Z,21.20
2019-04-06T02:15:08.562Z,21.80
2019-04-06T02:16:08.549Z,21.80
2019-04-06T02:17:08.575Z,22.50
2019-04-06T02:18:08.529Z,21.10
2019-04-06T02:19:08.545Z,21.40
2019-04-06T02:20:08.513Z,21.90
2019-04-06T02:21:08.513Z,22.10
2019-04-06T02:22:08.498Z,22.30
2019-04-06T02:23:08.477Z,21.30
2019-04-06T02:24:08.474Z,22.60
2019-04-06T02:25:08.460Z,21.60
2019-04-06T02:26:08.447Z,22.20
2019-04-06T02:27:08.433Z,21.50
2019-04-06T02:28:08.438Z,21.50
2019-04-06T02:29:08.415Z,22.70
2019-04-06T02:30:08.428Z,21.70
2019-04-06T02:31:08.391Z,22.60
2019-04-06T02:32:08.506Z,23.00
2019-04-06T02:33:08.361Z,21.70
2019-04-06T02:34:08.417Z,22.90
2019-04-06T02:35:08.429Z,21.70
2019-04-06T02:36:08.326Z,22.90
2019-04-06T02:37:08.322Z,21.70
2019-04-06T02:38:08.315Z,22.50
2019-04-06T02:39:08.379Z,22.30
2019-04-06T02:40:08.429Z,22.20
2019-04-06T02:41:08.356Z,23.00
2019-04-06T02:42:08.259Z,22.40
2019-04-06T02:43:08.314Z,22.20
2019-04-06T02:44:08.246Z,22.50
2019-04-06T02:45:08.258Z,23.10
2019-04-06T02:46:08.220Z,23.30
2019-04-06T02:47:08.386Z,22.90
2019-04-06T02:48:08.204Z,23.80
2019-04-06T02:49:08.203Z,23.00
2019-04-06T02:50:08.193Z,22.50
2019-04-06T02:51:08.156Z,23.00
2019-04-06T02:52:08.194Z,23.30
2019-04-06T02:53:08.134Z,22.30
2019-04-06T02:54:08.142Z,23.20
2019-04-06T02:55:08.151Z,23.20
2019-04-06T02:56:08.117Z,23.60
2019-04-06T02:57:08.095Z,23.00
2019-04-06T02:58:08.093Z,22.70
2019-04-06T02:59:08.094Z,23.40
2019-04-06T03:00:08.077Z,22.30
2019-04-06T03:01:08.062Z,23.80
2019-04-06T03:02:08.040Z,23.10
2019-04-06T03:03:08.033Z,23.00
2019-04-06T03:04:08.019Z,23.70
2019-04-06T03:05:08.001Z,23.50
2019-04-06T03:06:08.222Z,22.90
2019-04-06T03:07:07.988Z,22.70
2019-04-06T03:08:07.975Z,22.80
2019-04-06T03:09:11.335Z,23.50
2019-04-06T03:10:08.159Z,23.20
2019-04-06T03:11:07.972Z,23.20
2019-04-06T03:12:07.934Z,23.00
2019-04-06T03:13:07.933Z,22.20
2019-04-06T03:14:07.924Z,22.50
2019-04-06T03:15:08.037Z,22.60
2019-04-06T03:16:07.901Z,23.00
2019-04-06T03:17:07.881Z,22.70
2019-04-06T03:18:07.908Z,23.10
2019-04-06T03:19:07.899Z,23.20
2019-04-06T03:20:07.847Z,22.90
2019-04-06T03:21:07.841Z,22.30
2019-04-06T03:22:07.806Z,23.10
2019-04-06T03:23:07.815Z,22.40
2019-04-06T03:24:07.788Z,23.10
2019-04-06T03:25:07.848Z,22.70
2019-04-06T03:26:07.791Z,23.00
2019-04-06T03:27:07.777Z,22.90
2019-04-06T03:28:07.753Z,22.70
2019-04-06T03:29:07.850Z,22.60
2019-04-06T03:30:08.138Z,23.10
2019-04-06T03:31:07.743Z,22.50
2019-04-06T03:32:07.709Z,22.90
2019-04-06T03:33:07.690Z,22.40
2019-04-06T03:34:07.693Z,23.20
2019-04-06T03:35:07.665Z,22.30
2019-04-06T03:36:07.673Z,23.10
2019-04-06T03:37:07.669Z,23.40
2019-04-06T03:38:07.643Z,23.90
2019-04-06T03:39:07.643Z,23.80
2019-04-06T03:40:07.772Z,23.30
2019-04-06T03:41:07.619Z,23.30
2019-04-06T03:42:10.487Z,23.20
2019-04-06T03:43:07.705Z,22.70
2019-04-06T03:44:07.569Z,23.00
2019-04-06T03:45:07.562Z,22.60
2019-04-06T03:46:07.561Z,23.20
2019-04-06T03:47:07.570Z,23.00
2019-04-06T03:48:07.539Z,22.20
2019-04-06T03:49:07.555Z,22.30
2019-04-06T03:50:07.507Z,23.50
2019-04-06T03:51:07.515Z,22.50
2019-04-06T03:52:07.501Z,23.80
2019-04-06T03:53:07.471Z,23.30
2019-04-06T03:54:07.671Z,22.80
2019-04-06T03:55:07.459Z,22.40
2019-04-06T03:56:07.627Z,22.60
2019-04-06T03:57:14.497Z,22.70
2019-04-06T03:58:08.574Z,23.60
2019-04-06T03:59:07.403Z,22.60
2019-04-06T04:00:07.453Z,23.00
2019-04-06T04:01:07.389Z,23.00
2019-04-06T04:02:07.385Z,23.40
2019-04-06T04:03:07.358Z,23.10
2019-04-06T04:04:07.349Z,23.20
2019-04-06T04:05:07.376Z,23.10
2019-04-06T04:06:07.340Z,23.90
2019-04-06T04:07:07.361Z,23.10
2019-04-06T04:08:07.294Z,22.30
2019-04-06T04:09:07.442Z,23.60
2019-04-06T04:10:07.272Z,23.10
2019-04-06T04:11:07.274Z,23.10
2019-04-06T04:12:07.296Z,23.70
2019-04-06T04:13:07.264Z,24.80
2019-04-06T04:14:07.504Z,24.60
2019-04-06T04:15:07.225Z,24.50
2019-04-06T04:16:07.393Z,24.50
2019-04-06T04:17:07.219Z,24.30
2019-04-06T04:18:07.191Z,24.90
2019-04-06T04:19:07.190Z,23.40
2019-04-06T04:20:07.170Z,23.90
2019-04-06T04:21:07.160Z,23.30
2019-04-06T04:22:07.173Z,23.80
2019-04-06T04:23:07.144Z,23.60
2019-04-06T04:24:07.268Z,23.10
2019-04-06T04:25:07.137Z,25.00
2019-04-06T04:26:07.102Z,24.70
2019-04-06T04:27:07.210Z,24.50
2019-04-06T04:28:07.103Z,24.30
2019-04-06T04:29:07.072Z,24.70
2019-04-06T04:30:07.065Z,24.70
2019-04-06T04:31:07.064Z,25.00
2019-04-06T04:32:07.097Z,25.80
2019-04-06T04:33:07.023Z,25.30
2019-04-06T04:34:07.042Z,24.90
2019-04-06T04:35:07.010Z,25.20
2019-04-06T04:36:07.005Z,23.60
2019-04-06T04:37:07.020Z,23.20
2019-04-06T04:38:07.343Z,23.00
2019-04-06T04:39:06.962Z,23.50
2019-04-06T04:40:06.951Z,23.20
2019-04-06T04:41:06.934Z,23.40
2019-04-06T04:42:06.956Z,23.80
2019-04-06T04:43:06.918Z,23.90
2019-04-06T04:44:06.901Z,23.90
2019-04-06T04:45:06.890Z,24.20
2019-04-06T04:46:06.877Z,24.10
2019-04-06T04:47:07.225Z,24.30
2019-04-06T04:48:06.858Z,24.40
2019-04-06T04:49:06.845Z,24.20
2019-04-06T04:50:06.893Z,25.50
2019-04-06T04:51:06.820Z,24.20
2019-04-06T04:52:06.862Z,24.20
2019-04-06T04:53:06.815Z,24.80
2019-04-06T04:54:06.787Z,24.90
2019-04-06T04:55:06.872Z,25.00
2019-04-06T04:56:06.775Z,25.60
2019-04-06T04:57:06.823Z,24.70
2019-04-06T04:58:06.765Z,24.70
2019-04-06T04:59:06.737Z,24.50
2019-04-06T05:00:06.771Z,24.50
2019-04-06T05:01:06.705Z,24.90
2019-04-06T05:02:07.075Z,24.80
2019-04-06T05:03:06.713Z,25.40
2019-04-06T05:04:06.685Z,24.80
2019-04-06T05:05:09.179Z,24.70
2019-04-06T05:06:06.653Z,24.70
2019-04-06T05:07:06.660Z,24.70
2019-04-06T05:08:06.655Z,25.10
2019-04-06T05:09:06.635Z,25.20
2019-04-06T05:10:06.765Z,25.30
2019-04-06T05:11:06.593Z,25.20
2019-04-06T05:12:06.586Z,25.60
2019-04-06T05:13:06.669Z,25.70
2019-04-06T05:14:06.654Z,25.00
2019-04-06T05:15:06.563Z,25.70
2019-04-06T05:16:06.557Z,25.60
2019-04-06T05:17:06.604Z,25.10
2019-04-06T05:18:06.553Z,24.90
2019-04-06T05:19:06.539Z,25.60
2019-04-06T05:20:06.507Z,25.50
2019-04-06T05:21:06.495Z,25.60
2019-04-06T05:22:06.482Z,23.70
2019-04-06T05:23:06.597Z,25.10
2019-04-06T05:24:06.467Z,25.40
2019-04-06T05:25:06.684Z,25.10
2019-04-06T05:26:06.561Z,25.20
2019-04-06T05:27:06.419Z,25.60
2019-04-06T05:28:06.424Z,27.20
2019-04-06T05:29:06.429Z,26.50
2019-04-06T05:30:06.549Z,26.60
2019-04-06T05:31:06.380Z,26.10
2019-04-06T05:32:06.379Z,26.40
2019-04-06T05:33:06.377Z,24.80
2019-04-06T05:34:06.354Z,25.60
2019-04-06T05:35:06.353Z,25.80
2019-04-06T05:36:06.327Z,25.60
2019-04-06T05:37:06.320Z,24.80
2019-04-06T05:38:06.445Z,25.30
2019-04-06T05:39:06.298Z,25.70
2019-04-06T05:40:06.419Z,26.00
2019-04-06T05:41:06.426Z,25.00
2019-04-06T05:42:06.266Z,24.80
2019-04-06T05:43:06.272Z,25.60
2019-04-06T05:44:06.271Z,26.00
2019-04-06T05:45:06.230Z,24.80
2019-04-06T05:46:06.241Z,26.60
2019-04-06T05:47:06.200Z,25.90
2019-04-06T05:48:06.188Z,26.00
2019-04-06T05:49:06.221Z,26.60
2019-04-06T05:50:06.301Z,26.30
2019-04-06T05:51:06.166Z,25.20
2019-04-06T05:52:06.161Z,26.40
2019-04-06T05:53:06.133Z,26.00
2019-04-06T05:54:06.150Z,25.40
2019-04-06T05:55:06.120Z,25.70
2019-04-06T05:56:06.106Z,26.20
2019-04-06T05:57:06.128Z,25.60
2019-04-06T05:58:09.794Z,26.40
2019-04-06T05:59:06.307Z,25.10
2019-04-06T06:00:09.712Z,26.80
2019-04-06T06:01:06.057Z,27.50
2019-04-06T06:02:09.599Z,26.30
2019-04-06T06:03:06.157Z,26.70
2019-04-06T06:04:06.046Z,26.60
2019-04-06T06:05:06.017Z,26.20
2019-04-06T06:06:06.034Z,26.40
2019-04-06T06:07:05.986Z,26.50
2019-04-06T06:08:05.976Z,26.00
2019-04-06T06:09:05.982Z,26.70
2019-04-06T06:10:05.948Z,26.50
2019-04-06T06:11:06.119Z,26.70
2019-04-06T06:12:05.946Z,27.00
2019-04-06T06:13:05.926Z,26.60
2019-04-06T06:14:05.918Z,26.40
2019-04-06T06:15:05.888Z,27.50
2019-04-06T06:16:05.878Z,28.10
2019-04-06T06:17:05.885Z,27.40
2019-04-06T06:18:05.863Z,27.20
2019-04-06T06:19:05.868Z,26.50
2019-04-06T06:20:05.843Z,26.60
2019-04-06T06:21:05.827Z,26.80
2019-04-06T06:22:05.978Z,27.20
2019-04-06T06:23:05.803Z,26.80
2019-04-06T06:24:05.796Z,27.10
2019-04-06T06:25:05.779Z,27.80
2019-04-06T06:26:05.986Z,26.50
2019-04-06T06:27:05.758Z,28.70
2019-04-06T06:28:14.179Z,28.00
2019-04-06T06:29:06.747Z,27.00
2019-04-06T06:30:05.723Z,27.30
2019-04-06T06:31:05.706Z,27.20
2019-04-06T06:32:05.695Z,27.70
2019-04-06T06:33:05.726Z,27.20
2019-04-06T06:34:05.699Z,27.60
2019-04-06T06:35:05.682Z,26.90
2019-04-06T06:36:05.658Z,28.80
2019-04-06T06:37:05.647Z,28.40
2019-04-06T06:38:05.636Z,28.00
2019-04-06T06:39:05.646Z,30.10
2019-04-06T06:40:05.608Z,29.50
2019-04-06T06:41:05.596Z,29.20
2019-04-06T06:42:05.597Z,28.80
2019-04-06T06:43:05.829Z,27.10
2019-04-06T06:44:05.691Z,28.00
2019-04-06T06:45:05.553Z,27.70
2019-04-06T06:46:05.572Z,26.90
2019-04-06T06:47:05.604Z,28.60
2019-04-06T06:48:05.522Z,28.40
2019-04-06T06:49:05.514Z,28.70
2019-04-06T06:50:05.537Z,28.90
2019-04-06T06:51:05.500Z,28.00
2019-04-06T06:52:05.467Z,28.40
2019-04-06T06:53:05.472Z,27.80
2019-04-06T06:54:07.346Z,28.50
2019-04-06T06:55:05.482Z,28.30
2019-04-06T06:56:05.431Z,28.00
2019-04-06T06:57:05.510Z,28.10
2019-04-06T06:58:05.541Z,27.90
2019-04-06T06:59:05.406Z,28.50
2019-04-06T07:00:05.479Z,28.30
2019-04-06T07:01:05.388Z,28.40
2019-04-06T07:02:05.373Z,27.60
2019-04-06T07:03:05.368Z,27.70
2019-04-06T07:04:05.555Z,28.10
2019-04-06T07:05:05.403Z,28.10
2019-04-06T07:06:05.482Z,27.90
2019-04-06T07:07:05.326Z,27.60
2019-04-06T07:08:05.322Z,28.80
2019-04-06T07:09:05.287Z,28.50
2019-04-06T07:10:06.422Z,28.30
2019-04-06T07:11:05.263Z,29.40
2019-04-06T07:12:05.247Z,27.90
2019-04-06T07:13:05.255Z,28.00
2019-04-06T07:14:05.266Z,29.00
2019-04-06T07:15:05.231Z,28.80
2019-04-06T07:16:05.359Z,29.20
2019-04-06T07:17:05.228Z,29.10
2019-04-06T07:18:05.193Z,29.30
2019-04-06T07:19:05.199Z,28.60
2019-04-06T07:20:05.182Z,28.20
2019-04-06T07:21:05.160Z,28.30
2019-04-06T07:22:05.153Z,29.10
2019-04-06T07:23:05.252Z,29.20
2019-04-06T07:24:05.149Z,29.00
2019-04-06T07:25:05.126Z,28.60
2019-04-06T07:26:05.169Z,28.20
2019-04-06T07:27:05.120Z,28.50
2019-04-06T07:28:05.102Z,28.60
2019-04-06T07:29:05.074Z,28.40
2019-04-06T07:30:05.095Z,28.30
2019-04-06T07:31:05.052Z,29.20
2019-04-06T07:32:05.120Z,28.20
2019-04-06T07:33:05.029Z,29.10
2019-04-06T07:34:05.007Z,28.30
2019-04-06T07:35:05.013Z,28.60
2019-04-06T07:36:05.007Z,28.50
2019-04-06T07:37:04.987Z,28.00
2019-04-06T07:38:04.980Z,28.20
2019-04-06T07:39:04.957Z,28.70
2019-04-06T07:40:04.949Z,29.50
2019-04-06T07:41:05.099Z,27.90
2019-04-06T07:42:04.924Z,30.00
2019-04-06T07:43:04.914Z,27.90
2019-04-06T07:44:06.105Z,29.10
2019-04-06T07:45:04.895Z,29.70
2019-04-06T07:46:05.048Z,28.90
2019-04-06T07:47:04.963Z,28.50
2019-04-06T07:48:04.913Z,29.40
2019-04-06T07:49:09.179Z,29.20
2019-04-06T07:50:05.840Z,28.30
2019-04-06T07:51:04.849Z,29.80
2019-04-06T07:52:04.834Z,28.50
2019-04-06T07:53:04.817Z,29.20
2019-04-06T07:54:04.794Z,29.70
2019-04-06T07:55:04.805Z,29.00
2019-04-06T07:56:04.804Z,29.00
2019-04-06T07:57:04.753Z,30.40
2019-04-06T07:58:04.751Z,29.90
2019-04-06T07:59:05.006Z,29.60
2019-04-06T08:00:04.740Z,29.40
2019-04-06T08:01:04.753Z,29.80
2019-04-06T08:02:04.755Z,29.00
2019-04-06T08:03:04.761Z,28.60
2019-04-06T08:04:04.859Z,29.70
2019-04-06T08:05:04.718Z,29.70
2019-04-06T08:06:04.656Z,29.80
2019-04-06T08:07:04.877Z,30.00
2019-04-06T08:08:04.657Z,30.50
2019-04-06T08:09:04.633Z,29.10
2019-04-06T08:10:04.615Z,29.50
2019-04-06T08:11:04.734Z,28.60
2019-04-06T08:12:04.628Z,44.20
2019-04-06T08:13:04.589Z,46.70
2019-04-06T08:14:04.810Z,41.00
2019-04-06T08:15:04.554Z,39.30
2019-04-06T08:16:04.544Z,34.70
2019-04-06T08:17:04.566Z,30.80
2019-04-06T08:18:04.612Z,30.20
2019-04-06T08:19:04.520Z,29.10
2019-04-06T08:20:04.527Z,30.10
2019-04-06T08:21:04.494Z,30.50
2019-04-06T08:22:04.680Z,29.80
2019-04-06T08:23:04.462Z,27.80
2019-04-06T08:24:04.466Z,29.40
2019-04-06T08:25:04.449Z,29.00
2019-04-06T08:26:04.444Z,29.80
2019-04-06T08:27:04.490Z,29.60
2019-04-06T08:28:04.419Z,30.40
2019-04-06T08:29:04.399Z,29.50
2019-04-06T08:30:04.674Z,29.90
2019-04-06T08:31:04.374Z,29.30
2019-04-06T08:32:04.393Z,29.80
2019-04-06T08:33:04.352Z,29.50
2019-04-06T08:34:04.367Z,28.90
2019-04-06T08:35:04.346Z,30.20
2019-04-06T08:36:04.338Z,29.10
2019-04-06T08:37:04.490Z,29.20
2019-04-06T08:38:04.318Z,29.20
2019-04-06T08:39:04.304Z,29.00
2019-04-06T08:40:04.296Z,29.60
2019-04-06T08:41:04.280Z,30.20
2019-04-06T08:42:04.249Z,29.50
2019-04-06T08:43:04.456Z,30.40
2019-04-06T08:44:04.242Z,29.10
2019-04-06T08:45:04.236Z,29.50
2019-04-06T08:46:04.216Z,28.40
2019-04-06T08:47:04.217Z,29.20
2019-04-06T08:48:04.244Z,29.80
2019-04-06T08:49:04.379Z,29.40
2019-04-06T08:50:04.180Z,27.80
2019-04-06T08:51:04.158Z,28.60
2019-04-06T08:52:04.156Z,29.10
2019-04-06T08:53:04.349Z,29.30
2019-04-06T08:54:04.248Z,29.20
2019-04-06T08:55:04.106Z,27.30
2019-04-06T08:56:04.169Z,29.00
2019-04-06T08:57:04.092Z,29.40
2019-04-06T08:58:04.120Z,28.80
2019-04-06T08:59:11.220Z,27.40
2019-04-06T09:00:05.057Z,28.10
2019-04-06T09:01:04.043Z,29.40
2019-04-06T09:02:04.190Z,28.50
2019-04-06T09:03:04.060Z,27.90
2019-04-06T09:04:04.015Z,28.80
2019-04-06T09:05:04.010Z,29.60
2019-04-06T09:06:03.988Z,28.40
2019-04-06T09:07:03.987Z,29.10
2019-04-06T09:08:03.974Z,28.90
2019-04-06T09:09:03.992Z,29.40
2019-04-06T09:10:03.977Z,29.70
2019-04-06T09:11:03.968Z,28.60
2019-04-06T09:12:04.042Z,28.00
2019-04-06T09:13:03.988Z,27.80
2019-04-06T09:14:03.935Z,28.30
2019-04-06T09:15:04.000Z,27.80
2019-04-06T09:16:04.170Z,27.50
2019-04-06T09:17:03.859Z,27.80
2019-04-06T09:18:03.865Z,28.60
2019-04-06T09:19:03.870Z,29.00
2019-04-06T09:20:04.101Z,28.00
2019-04-06T09:21:03.831Z,26.60
2019-04-06T09:22:03.825Z,27.30
2019-04-06T09:23:03.798Z,26.90
2019-04-06T09:24:03.818Z,26.30
2019-04-06T09:25:03.777Z,26.80
2019-04-06T09:26:03.774Z,26.10
2019-04-06T09:27:03.816Z,26.50
2019-04-06T09:28:03.754Z,26.30
2019-04-06T09:29:04.177Z,25.70
2019-04-06T09:30:03.739Z,25.70
2019-04-06T09:31:03.718Z,25.70
2019-04-06T09:32:03.704Z,26.80
2019-04-06T09:33:03.757Z,26.90
2019-04-06T09:34:03.683Z,28.30
2019-04-06T09:35:03.863Z,26.10
2019-04-06T09:36:03.659Z,26.10
2019-04-06T09:37:03.879Z,26.00
2019-04-06T09:38:03.640Z,26.00
2019-04-06T09:39:03.621Z,26.30
2019-04-06T09:40:03.650Z,26.20
2019-04-06T09:41:03.634Z,26.50
2019-04-06T09:42:03.674Z,25.00
2019-04-06T09:43:03.583Z,24.60
2019-04-06T09:44:03.569Z,24.10
2019-04-06T09:45:03.792Z,24.60
2019-04-06T09:46:03.557Z,23.80
2019-04-06T09:47:03.560Z,24.70
2019-04-06T09:48:03.535Z,23.90
2019-04-06T09:49:03.811Z,24.00
2019-04-06T09:50:03.515Z,24.90
2019-04-06T09:51:03.492Z,24.50
2019-04-06T09:52:03.492Z,24.30
2019-04-06T09:53:03.480Z,23.80
2019-04-06T09:54:06.415Z,23.30
2019-04-06T09:55:03.464Z,24.90
2019-04-06T09:56:03.436Z,24.80
2019-04-06T09:57:03.804Z,23.30
2019-04-06T09:58:03.494Z,24.40
2019-04-06T09:59:03.412Z,23.10
2019-04-06T10:00:03.427Z,24.20
2019-04-06T10:01:03.643Z,24.20
2019-04-06T10:02:03.374Z,27.60
2019-04-06T10:03:03.486Z,27.60
2019-04-06T10:04:03.360Z,24.50
2019-04-06T10:05:03.343Z,24.20
2019-04-06T10:06:03.534Z,24.00
2019-04-06T10:07:03.333Z,23.10
2019-04-06T10:08:03.353Z,23.00
2019-04-06T10:09:03.280Z,23.00
2019-04-06T10:10:03.359Z,24.00
2019-04-06T10:11:03.501Z,23.60
2019-04-06T10:12:04.447Z,23.10
2019-04-06T10:13:03.262Z,23.00
2019-04-06T10:14:03.271Z,23.30
2019-04-06T10:15:03.218Z,22.30
2019-04-06T10:16:03.221Z,23.00
2019-04-06T10:17:03.214Z,23.10
2019-04-06T10:18:03.196Z,23.40
2019-04-06T10:19:03.217Z,23.20
2019-04-06T10:20:03.174Z,21.80
2019-04-06T10:21:03.184Z,22.40
2019-04-06T10:22:03.143Z,22.20
2019-04-06T10:23:03.423Z,21.40
2019-04-06T10:24:03.128Z,21.10
2019-04-06T10:25:03.122Z,21.10
2019-04-06T10:26:03.302Z,21.70
2019-04-06T10:27:03.120Z,22.10
2019-04-06T10:28:03.078Z,22.30
2019-04-06T10:29:03.082Z,21.50
2019-04-06T10:30:03.285Z,21.30
2019-04-06T10:31:03.365Z,20.10
2019-04-06T10:32:03.553Z,20.70
2019-04-06T10:33:03.194Z,20.40
2019-04-06T10:34:03.108Z,20.20
2019-04-06T10:35:03.006Z,20.70
2019-04-06T10:36:03.188Z,20.60
2019-04-06T10:37:03.028Z,20.70
2019-04-06T10:38:02.973Z,21.10
2019-04-06T10:39:02.957Z,21.20
2019-04-06T10:40:02.951Z,20.90
2019-04-06T10:41:02.934Z,20.60
2019-04-06T10:42:02.945Z,20.70
2019-04-06T10:43:02.934Z,21.30
2019-04-06T10:44:02.911Z,20.70
2019-04-06T10:45:02.898Z,21.20
2019-04-06T10:46:02.885Z,22.00
2019-04-06T10:47:02.884Z,21.50
2019-04-06T10:48:02.854Z,21.10
2019-04-06T10:49:02.852Z,21.10
2019-04-06T10:50:02.826Z,20.50
2019-04-06T10:51:02.819Z,20.10
2019-04-06T10:52:02.829Z,20.30
2019-04-06T10:53:02.811Z,19.90
2019-04-06T10:54:03.059Z,19.50
2019-04-06T10:55:02.854Z,20.00
2019-04-06T10:56:02.766Z,20.60
2019-04-06T10:57:02.778Z,36.60
2019-04-06T10:58:02.772Z,33.10
2019-04-06T10:59:03.731Z,21.60
2019-04-06T11:00:03.454Z,21.60
2019-04-06T11:01:02.727Z,20.40
2019-04-06T11:02:02.711Z,20.30
2019-04-06T11:03:02.726Z,19.10
2019-04-06T11:04:02.679Z,19.90
2019-04-06T11:05:02.669Z,20.80
2019-04-06T11:06:02.668Z,20.20
2019-04-06T11:07:02.655Z,19.40
2019-04-06T11:08:02.659Z,19.70
2019-04-06T11:09:02.638Z,19.50
2019-04-06T11:10:02.619Z,19.40
2019-04-06T11:11:03.254Z,19.50
2019-04-06T11:12:02.597Z,19.50
2019-04-06T11:13:02.798Z,20.00
2019-04-06T11:14:02.567Z,19.20
2019-04-06T11:15:02.572Z,20.40
2019-04-06T11:16:02.699Z,20.30
2019-04-06T11:17:02.568Z,19.20
2019-04-06T11:18:02.523Z,22.10
2019-04-06T11:19:02.628Z,21.40
2019-04-06T11:20:02.501Z,20.70
2019-04-06T11:21:02.512Z,21.20
2019-04-06T11:22:02.525Z,21.00
2019-04-06T11:23:02.468Z,22.40
2019-04-06T11:24:02.610Z,21.50
2019-04-06T11:25:02.451Z,21.40
2019-04-06T11:26:02.697Z,21.50
2019-04-06T11:27:02.434Z,22.00
2019-04-06T11:28:03.965Z,21.50
2019-04-06T11:29:02.432Z,23.20
2019-04-06T11:30:11.995Z,22.70
2019-04-06T11:31:03.389Z,22.50
2019-04-06T11:32:02.545Z,21.70
2019-04-06T11:33:02.588Z,22.30
2019-04-06T11:34:02.372Z,23.10
2019-04-06T11:35:02.338Z,22.70
2019-04-06T11:36:02.325Z,22.10
2019-04-06T11:37:02.311Z,51.80
2019-04-06T11:38:02.315Z,29.90
2019-04-06T11:39:02.489Z,24.60
2019-04-06T11:40:02.300Z,23.70
2019-04-06T11:41:02.348Z,22.80
2019-04-06T11:42:02.264Z,23.00
2019-04-06T11:43:02.247Z,23.60
2019-04-06T11:44:02.253Z,22.20
2019-04-06T11:45:02.240Z,23.40
2019-04-06T11:46:02.288Z,23.50
2019-04-06T11:47:02.461Z,23.50
2019-04-06T11:48:02.196Z,23.30
2019-04-06T11:49:02.220Z,23.10
2019-04-06T11:50:02.172Z,22.80
2019-04-06T11:51:02.194Z,22.00
2019-04-06T11:52:02.152Z,22.30
2019-04-06T11:53:02.150Z,22.20
2019-04-06T11:54:02.317Z,21.40
2019-04-06T11:55:02.115Z,22.10
2019-04-06T11:56:02.112Z,22.50
2019-04-06T11:57:02.096Z,21.20
2019-04-06T11:58:02.199Z,21.70
2019-04-06T11:59:02.103Z,22.30
2019-04-06T12:00:02.400Z,22.10
2019-04-06T12:01:02.041Z,22.90
2019-04-06T12:02:02.039Z,22.40
2019-04-06T12:03:02.014Z,22.40
2019-04-06T12:04:02.300Z,21.60
2019-04-06T12:05:02.002Z,21.70
2019-04-06T12:06:02.336Z,22.90
2019-04-06T12:07:01.987Z,21.70
2019-04-06T12:08:01.973Z,22.90
2019-04-06T12:09:01.962Z,22.80
2019-04-06T12:10:01.941Z,24.70
2019-04-06T12:11:01.948Z,23.50
2019-04-06T12:12:01.928Z,22.30
2019-04-06T12:13:01.994Z,22.30
2019-04-06T12:14:01.962Z,21.00
2019-04-06T12:15:01.922Z,21.30
2019-04-06T12:16:01.889Z,21.40
2019-04-06T12:17:02.249Z,21.70
2019-04-06T12:18:02.343Z,22.10
2019-04-06T12:19:01.859Z,22.60
2019-04-06T12:20:01.836Z,22.20
2019-04-06T12:21:01.836Z,22.30
2019-04-06T12:22:01.919Z,22.00
2019-04-06T12:23:02.003Z,21.50
2019-04-06T12:24:01.807Z,21.30
2019-04-06T12:25:01.796Z,21.90
2019-04-06T12:26:01.764Z,22.00
2019-04-06T12:27:01.771Z,22.60
2019-04-06T12:28:01.994Z,21.50
2019-04-06T12:29:01.826Z,20.90
2019-04-06T12:30:01.758Z,20.60
2019-04-06T12:31:01.713Z,21.60
2019-04-06T12:32:01.708Z,21.60
2019-04-06T12:33:01.708Z,21.10
2019-04-06T12:34:01.701Z,20.90
2019-04-06T12:35:01.994Z,22.00
2019-04-06T12:36:01.663Z,20.40
2019-04-06T12:37:01.659Z,21.50
2019-04-06T12:38:01.643Z,21.50
2019-04-06T12:39:01.697Z,20.90
2019-04-06T12:40:01.609Z,20.80
2019-04-06T12:41:01.609Z,20.50
2019-04-06T12:42:01.763Z,21.10
2019-04-06T12:43:01.592Z,22.10
2019-04-06T12:44:01.596Z,20.60
2019-04-06T12:45:01.587Z,21.40
2019-04-06T12:46:01.552Z,21.20
2019-04-06T12:47:01.911Z,21.10
2019-04-06T12:48:01.802Z,20.40
2019-04-06T12:49:01.529Z,21.00
2019-04-06T12:50:01.639Z,20.80
2019-04-06T12:51:01.567Z,20.70
2019-04-06T12:52:01.568Z,20.90